Ellenburg Center, New York
Current Conditions -  °F | °C
As of 7:53 PM on Saturday 22 Nov 2014 (Local Time) from KPBG Reporting Station
Overcast Overcast  
Wind Chill: 31°   Ceiling: 2500
Heat Index: 36°   Visibility: 10mi
Dew Point: 25°   Wind: 6mph
Humidity: 64%   Direction: 160°SSE
Pressure: 29.93"   Gusts: NA
Location:  44.86°N, 73.9°W
Report Text: KPBG 230053Z AUTO 16005KT 10SM OVC025 02/M04 A2993 RMK AO2 SLP138 T00221039
Loading
Personal Weather Stations






























Interactive Weather Map New forecast layout! Learn more

10-Day Weather Forecast

Advertisements
Track Severe Weather on mobile